Time;durP1;ratioP1;P1;durP2;ratioP2;P2;SDS_P1;SDS_P2;PMS_P1;PMS_P2;Temp;Humidity;BMP_temperature;BMP_pressure;BME280_temperature;BME280_humidity;BME280_pressure;Samples;Min_cycle;Max_cycle;Signal;HPM_P1;HPM_P2
2023/04/13 00:00:22;;;;;;;33.17;18.50;;;3.40;99.90;;;;;;4958856;28;20023;-85
2023/04/13 00:02:54;;;;;;;36.33;18.90;;;3.40;99.90;;;;;;4958989;28;20054;-85
2023/04/13 00:05:21;;;;;;;33.97;18.70;;;3.40;99.90;;;;;;4959200;28;20038;-84
2023/04/13 00:07:47;;;;;;;40.58;20.80;;;3.40;99.90;;;;;;4976116;28;20034;-85
2023/04/13 00:10:14;;;;;;;29.75;18.27;;;3.40;99.90;;;;;;4976127;28;20499;-85
2023/04/13 00:12:47;;;;;;;36.75;20.08;;;3.50;99.90;;;;;;4975698;28;20469;-85
2023/04/13 00:15:14;;;;;;;34.35;18.90;;;3.40;99.90;;;;;;4958990;28;20023;-86
2023/04/13 00:17:43;;;;;;;34.58;18.45;;;3.50;99.90;;;;;;4976200;28;20031;-85
2023/04/13 00:20:12;;;;;;;36.10;20.45;;;3.40;99.90;;;;;;4975878;28;20050;-85
2023/04/13 00:22:43;;;;;;;37.28;19.48;;;3.40;99.90;;;;;;4975794;28;20023;-86
2023/04/13 00:25:10;;;;;;;38.63;19.67;;;3.40;99.90;;;;;;4958618;28;20046;-85
2023/04/13 00:27:39;;;;;;;33.13;19.45;;;3.40;99.90;;;;;;4976090;28;20043;-85
2023/04/13 00:30:08;;;;;;;34.38;18.95;;;3.40;99.90;;;;;;4958506;28;20026;-85
2023/04/13 00:32:35;;;;;;;36.80;20.00;;;3.40;99.90;;;;;;4958238;28;20106;-85
2023/04/13 00:35:01;;;;;;;33.92;18.83;;;3.40;99.90;;;;;;4975645;28;20027;-85
2023/04/13 00:37:28;;;;;;;36.05;21.27;;;3.40;99.90;;;;;;4958167;28;20105;-85
2023/04/13 00:39:54;;;;;;;46.03;23.77;;;3.40;99.90;;;;;;4958250;28;20030;-85
2023/04/13 00:42:19;;;;;;;42.47;23.52;;;3.40;99.90;;;;;;4975435;28;20022;-85
2023/04/13 00:44:45;;;;;;;40.15;21.73;;;3.40;99.90;;;;;;4958184;28;20030;-85
2023/04/13 00:47:12;;;;;;;37.22;21.05;;;3.40;99.90;;;;;;4957813;28;20039;-86
2023/04/13 00:49:38;;;;;;;33.10;18.90;;;3.40;99.90;;;;;;4975305;28;20027;-86
2023/04/13 00:52:07;;;;;;;32.25;18.40;;;3.40;99.90;;;;;;4957595;28;20019;-85
2023/04/13 00:54:34;;;;;;;38.60;19.58;;;3.40;99.90;;;;;;4975223;28;20389;-85
2023/04/13 00:57:06;;;;;;;31.48;18.25;;;3.40;99.90;;;;;;4957902;28;20121;-85
2023/04/13 00:59:33;;;;;;;31.42;17.80;;;3.40;99.90;;;;;;4958586;28;20057;-85
2023/04/13 01:02:03;;;;;;;35.47;19.77;;;3.40;99.90;;;;;;4975864;28;20031;-85
2023/04/13 01:04:29;;;;;;;33.40;18.33;;;3.30;99.90;;;;;;4958215;28;20031;-85
2023/04/13 01:07:08;;;;;;;30.90;17.85;;;3.30;99.90;;;;;;4958450;28;20030;-85
2023/04/13 01:09:42;;;;;;;43.95;21.52;;;3.30;99.90;;;;;;4975286;28;20026;-85
2023/04/13 01:12:17;;;;;;;37.17;19.33;;;3.30;99.90;;;;;;4974385;28;20026;-85
2023/04/13 01:15:13;;;;;;;32.75;18.90;;;3.30;99.90;;;;;;4957029;28;20023;-85
2023/04/13 01:17:43;;;;;;;29.90;18.17;;;3.20;99.90;;;;;;4963761;28;20508;-85
2023/04/13 01:20:14;;;;;;;31.90;18.45;;;3.20;99.90;;;;;;4976564;28;20423;-85
2023/04/13 01:22:54;;;;;;;33.33;17.77;;;3.20;99.90;;;;;;4976946;28;20030;-84
2023/04/13 01:25:35;;;;;;;34.63;19.52;;;3.20;99.90;;;;;;4958807;28;20047;-85
2023/04/13 01:28:18;;;;;;;37.10;20.27;;;3.10;99.90;;;;;;4957538;28;20089;-85
2023/04/13 01:30:48;;;;;;;26.50;15.75;;;3.10;99.90;;;;;;4974487;28;20052;-85
2023/04/13 01:33:15;;;;;;;31.60;18.63;;;3.10;99.90;;;;;;4957286;28;20101;-85
2023/04/13 01:35:41;;;;;;;28.63;16.98;;;3.10;99.90;;;;;;4974369;28;20019;-85
2023/04/13 01:38:07;;;;;;;28.95;17.08;;;3.10;99.90;;;;;;4957400;28;20033;-85
2023/04/13 01:40:35;;;;;;;35.25;17.45;;;3.10;99.90;;;;;;4974528;28;20103;-85
2023/04/13 01:43:02;;;;;;;89.47;35.17;;;3.10;99.90;;;;;;4974194;28;20473;-85
2023/04/13 01:45:31;;;;;;;424.73;165.25;;;3.00;99.90;;;;;;4974486;28;20385;-84
2023/04/13 01:48:12;;;;;;;155.20;65.78;;;3.00;99.90;;;;;;4973851;28;20401;-85
2023/04/13 01:50:44;;;;;;;161.25;75.03;;;2.90;99.90;;;;;;4974391;28;20018;-85
2023/04/13 01:53:27;;;;;;;71.95;32.85;;;2.90;99.90;;;;;;4974363;28;20055;-85
2023/04/13 01:55:54;;;;;;;;;;;2.90;99.90;;;;;;4957374;28;20023;-86
2023/04/13 01:58:22;;;;;;;48.47;20.85;;;2.90;99.90;;;;;;4956866;28;19922;-85
2023/04/13 02:00:48;;;;;;;36.60;19.25;;;2.80;99.90;;;;;;4956887;28;20048;-85
2023/04/13 02:03:15;;;;;;;46.15;22.52;;;2.90;99.90;;;;;;4974439;28;20106;-85
2023/04/13 02:05:40;;;;;;;44.70;21.88;;;2.80;99.90;;;;;;4992928;28;20023;-85
2023/04/13 02:08:09;;;;;;;37.90;19.75;;;2.90;99.90;;;;;;4975996;28;20030;-85
2023/04/13 02:10:36;;;;;;;33.40;18.92;;;2.90;99.90;;;;;;4976129;28;20057;-85
2023/04/13 02:13:06;;;;;;;28.90;16.95;;;2.80;99.90;;;;;;4976299;28;20032;-85
2023/04/13 02:15:36;;;;;;;34.85;17.13;;;2.80;99.90;;;;;;4993373;28;20443;-85
2023/04/13 02:18:03;;;;;;;29.13;17.13;;;2.80;99.90;;;;;;4976410;28;20057;-85
2023/04/13 02:20:32;;;;;;;29.38;16.58;;;2.70;99.90;;;;;;4993405;28;20046;-85
2023/04/13 02:22:59;;;;;;;39.63;16.40;;;2.70;99.90;;;;;;4976237;28;20444;-85
2023/04/13 02:25:26;;;;;;;37.10;19.40;;;2.70;99.90;;;;;;4976052;28;20031;-85
2023/04/13 02:27:52;;;;;;;37.45;19.17;;;2.60;99.90;;;;;;4976236;28;20428;-85
2023/04/13 02:30:18;;;;;;;35.95;17.88;;;2.60;99.90;;;;;;4993161;28;20038;-85
2023/04/13 02:32:48;;;;;;;29.35;15.60;;;2.50;99.90;;;;;;4979288;28;20065;-85
2023/04/13 02:35:14;;;;;;;28.20;15.93;;;2.50;99.90;;;;;;4979982;28;20026;-86
2023/04/13 02:37:40;;;;;;;25.95;14.77;;;2.50;99.90;;;;;;4997431;28;20081;-85
2023/04/13 02:40:08;;;;;;;28.83;16.38;;;2.50;99.90;;;;;;4997097;28;20046;-85
2023/04/13 02:42:35;;;;;;;37.70;18.65;;;2.50;99.90;;;;;;4979479;28;20080;-84
2023/04/13 02:45:03;;;;;;;38.85;19.73;;;2.40;99.90;;;;;;4997113;28;20052;-85
2023/04/13 02:47:29;;;;;;;41.17;20.50;;;2.40;99.90;;;;;;4979562;28;20221;-84
2023/04/13 02:49:54;;;;;;;32.20;19.15;;;2.40;99.90;;;;;;4996570;28;20172;-85
2023/04/13 02:52:20;;;;;;;36.65;18.50;;;2.50;99.90;;;;;;4996469;28;20060;-85
2023/04/13 02:54:47;;;;;;;31.50;17.17;;;2.40;99.90;;;;;;4979238;28;20029;-85
2023/04/13 02:57:14;;;;;;;34.58;18.60;;;2.50;99.90;;;;;;4997111;28;20030;-85
2023/04/13 02:59:40;;;;;;;33.72;17.42;;;2.50;99.90;;;;;;4979284;28;20069;-85
2023/04/13 03:02:07;;;;;;;30.77;15.73;;;2.60;99.90;;;;;;4979498;28;20113;-85
2023/04/13 03:04:33;;;;;;;28.73;15.93;;;2.70;99.90;;;;;;4996115;28;20030;-84
2023/04/13 03:06:59;;;;;;;25.50;14.35;;;2.70;99.90;;;;;;4997104;28;20054;-85
2023/04/13 03:09:25;;;;;;;23.80;15.13;;;2.70;99.90;;;;;;4995972;28;20022;-85
2023/04/13 03:11:50;;;;;;;27.85;15.25;;;2.80;99.90;;;;;;4996568;28;20026;-85
2023/04/13 03:14:22;;;;;;;27.27;15.15;;;2.80;99.90;;;;;;4978798;28;20025;-85
2023/04/13 03:16:48;;;;;;;24.45;13.95;;;2.80;99.90;;;;;;4978829;28;20550;-85
2023/04/13 03:19:15;;;;;;;28.33;15.75;;;2.90;99.90;;;;;;4996157;28;20362;-85
2023/04/13 03:21:43;;;;;;;36.80;17.23;;;3.00;99.90;;;;;;4996336;28;20444;-85
2023/04/13 03:24:10;;;;;;;29.40;17.45;;;3.00;99.90;;;;;;4978937;28;20436;-85
2023/04/13 03:26:36;;;;;;;29.38;16.38;;;3.00;99.90;;;;;;4996416;28;20097;-85
2023/04/13 03:29:02;;;;;;;22.80;14.60;;;3.00;99.90;;;;;;4978839;28;20019;-86
2023/04/13 03:31:29;;;;;;;26.13;14.55;;;3.00;99.90;;;;;;4996288;28;20077;-86
2023/04/13 03:33:56;;;;;;;24.88;13.57;;;3.10;99.90;;;;;;4979248;28;20488;-85
2023/04/13 03:36:23;;;;;;;26.25;14.57;;;3.10;99.90;;;;;;4978955;28;20061;-85
2023/04/13 03:38:48;;;;;;;35.03;15.85;;;3.20;99.90;;;;;;4978692;28;20022;-85
2023/04/13 03:41:14;;;;;;;25.10;13.80;;;3.20;99.90;;;;;;4996001;28;20027;-85
2023/04/13 03:43:40;;;;;;;41.20;16.63;;;3.30;99.90;;;;;;4978100;28;20026;-85
2023/04/13 03:46:06;;;;;;;25.58;14.45;;;3.30;99.90;;;;;;4995949;28;20437;-85
2023/04/13 03:48:33;;;;;;;27.38;14.70;;;3.40;99.90;;;;;;4995835;28;20034;-85
2023/04/13 03:50:59;;;;;;;23.15;14.45;;;3.40;99.90;;;;;;4978408;28;20038;-85
2023/04/13 03:53:24;;;;;;;23.67;14.63;;;3.50;99.90;;;;;;4995339;28;20065;-84
2023/04/13 03:55:51;;;;;;;24.73;14.43;;;3.60;99.90;;;;;;4978315;28;20472;-85
2023/04/13 03:58:17;;;;;;;28.10;15.63;;;3.60;99.90;;;;;;4996182;28;20027;-85
2023/04/13 04:00:43;;;;;;;26.95;15.50;;;3.60;99.90;;;;;;4978479;28;20464;-85
2023/04/13 04:03:09;;;;;;;104.50;56.05;;;3.60;99.90;;;;;;4978114;28;20025;-85
2023/04/13 04:05:37;;;;;;;30.20;18.48;;;3.60;99.90;;;;;;4995594;28;20025;-85
2023/04/13 04:08:02;;;;;;;33.10;17.30;;;3.50;99.90;;;;;;4978559;28;20088;-85
2023/04/13 04:10:28;;;;;;;22.00;12.98;;;3.60;99.90;;;;;;4995430;28;20453;-85
2023/04/13 04:12:55;;;;;;;21.23;13.48;;;3.60;99.90;;;;;;4977689;28;20022;-85
2023/04/13 04:15:21;;;;;;;25.23;14.57;;;3.70;99.90;;;;;;4978113;28;20101;-84
2023/04/13 04:17:47;;;;;;;19.33;12.80;;;3.80;99.90;;;;;;4978276;28;20113;-85
2023/04/13 04:20:13;;;;;;;23.80;13.90;;;3.80;99.90;;;;;;4978316;28;20023;-85
2023/04/13 04:22:40;;;;;;;22.35;13.50;;;3.90;99.90;;;;;;4995276;28;20048;-85
2023/04/13 04:25:07;;;;;;;22.65;13.05;;;3.90;99.90;;;;;;4978215;28;20491;-84
2023/04/13 04:27:37;;;;;;;20.42;12.95;;;4.00;99.90;;;;;;4977649;28;20047;-85
2023/04/13 04:30:04;;;;;;;21.25;14.13;;;4.10;99.90;;;;;;4995247;28;20026;-85
2023/04/13 04:32:32;;;;;;;22.10;13.05;;;4.10;99.90;;;;;;4959751;28;20030;-85
2023/04/13 04:34:59;;;;;;;21.23;13.73;;;4.20;99.90;;;;;;4958340;28;20019;-85
2023/04/13 04:37:24;;;;;;;25.38;14.23;;;4.30;99.90;;;;;;4975558;28;20054;-85
2023/04/13 04:39:52;;;;;;;19.38;12.65;;;4.30;99.90;;;;;;4958224;28;20493;-85
2023/04/13 04:42:18;;;;;;;24.35;13.02;;;4.40;99.90;;;;;;4957946;28;20026;-85
2023/04/13 04:44:46;;;;;;;18.42;12.57;;;4.50;99.90;;;;;;4958475;28;20770;-85
2023/04/13 04:47:12;;;;;;;23.60;14.55;;;4.50;99.90;;;;;;4994579;28;20041;-84
2023/04/13 04:49:38;;;;;;;24.25;15.27;;;4.60;99.90;;;;;;4976280;28;20076;-85
2023/04/13 04:52:03;;;;;;;26.85;16.23;;;4.70;99.90;;;;;;4976272;28;20404;-85
2023/04/13 04:54:29;;;;;;;26.52;15.07;;;4.70;99.90;;;;;;4975131;28;20026;-85
2023/04/13 04:56:56;;;;;;;25.95;15.18;;;4.80;99.90;;;;;;4994194;28;20035;-85
2023/04/13 04:59:22;;;;;;;26.35;15.68;;;4.80;99.90;;;;;;4976895;28;20315;-85
2023/04/13 05:01:48;;;;;;;33.80;19.77;;;4.90;99.90;;;;;;4978085;28;20165;-87
2023/04/13 05:04:14;;;;;;;28.48;17.10;;;5.00;99.90;;;;;;4974988;28;20019;-84
2023/04/13 05:06:41;;;;;;;29.25;16.20;;;5.10;99.90;;;;;;4972540;28;20038;-84
2023/04/13 05:09:07;;;;;;;35.53;19.02;;;5.10;99.90;;;;;;4972733;28;20030;-84
2023/04/13 05:11:33;;;;;;;31.70;18.20;;;5.20;99.90;;;;;;4955508;28;20077;-87
2023/04/13 05:13:59;;;;;;;32.08;18.95;;;5.40;99.90;;;;;;4955414;28;20458;-86
2023/04/13 05:16:29;;;;;;;29.55;16.50;;;5.40;99.90;;;;;;4972632;28;20109;-84
2023/04/13 05:18:55;;;;;;;25.50;15.57;;;5.50;99.90;;;;;;4955509;28;20106;-87
2023/04/13 05:21:21;;;;;;;25.63;13.88;;;5.70;99.90;;;;;;4961273;28;20453;-86
2023/04/13 05:23:47;;;;;;;18.48;12.23;;;5.80;99.90;;;;;;4964872;28;20065;-87
2023/04/13 05:26:15;;;;;;;19.85;13.40;;;6.00;99.90;;;;;;4983107;28;20026;-85
2023/04/13 05:28:41;;;;;;;17.35;11.95;;;6.10;99.90;;;;;;4974632;28;20049;-86
2023/04/13 05:31:09;;;;;;;18.30;12.25;;;6.20;99.90;;;;;;4966684;28;20053;-87
2023/04/13 05:33:36;;;;;;;19.50;11.63;;;6.30;99.90;;;;;;4982903;28;20489;-87
2023/04/13 05:36:02;;;;;;;18.98;12.07;;;6.30;99.90;;;;;;4964987;28;20019;-86
2023/04/13 05:38:29;;;;;;;18.42;11.30;;;6.40;99.90;;;;;;4974767;28;20023;-86
2023/04/13 05:40:56;;;;;;;19.20;12.25;;;6.50;99.90;;;;;;4983247;28;20027;-86
2023/04/13 05:43:22;;;;;;;14.65;8.85;;;6.70;99.90;;;;;;4993619;28;20949;-87
2023/04/13 05:45:48;;;;;;;15.02;9.70;;;6.80;99.90;;;;;;4993747;28;20023;-86
2023/04/13 05:48:14;;;;;;;17.23;9.50;;;7.00;99.90;;;;;;4993731;28;20037;-87
2023/04/13 05:50:59;;;;;;;16.15;8.48;;;7.20;99.90;;;;;;4967984;28;20547;-86
2023/04/13 05:53:30;;;;;;;14.93;10.18;;;7.30;99.90;;;;;;4962722;28;20073;-85
2023/04/13 05:55:57;;;;;;;15.05;8.70;;;7.50;99.90;;;;;;4992741;28;20019;-87
2023/04/13 05:58:25;;;;;;;11.82;8.20;;;7.70;99.90;;;;;;4973329;28;20071;-86
2023/04/13 06:00:51;;;;;;;12.77;7.63;;;7.80;99.90;;;;;;4972662;28;20019;-85
2023/04/13 06:03:19;;;;;;;12.38;9.05;;;7.80;94.50;;;;;;4974189;28;20034;-85
2023/04/13 06:05:45;;;;;;;13.40;7.85;;;7.90;90.40;;;;;;4973821;28;20051;-86
2023/04/13 06:08:12;;;;;;;10.43;8.02;;;8.00;88.10;;;;;;4967358;28;20484;-86
2023/04/13 06:10:38;;;;;;;12.63;8.57;;;8.10;86.10;;;;;;4955416;28;20031;-85
2023/04/13 06:13:04;;;;;;;22.35;9.05;;;8.30;84.00;;;;;;4972038;28;20034;-86
2023/04/13 06:15:30;;;;;;;32.30;14.75;;;8.40;84.50;;;;;;4955109;28;20477;-85
2023/04/13 06:17:56;;;;;;;21.17;12.27;;;8.60;83.30;;;;;;4972053;28;20433;-86
2023/04/13 06:20:22;;;;;;;26.58;12.45;;;8.60;83.10;;;;;;4971919;28;20027;-85
2023/04/13 06:22:48;;;;;;;28.10;14.77;;;8.70;83.80;;;;;;4954742;28;20458;-86
2023/04/13 06:25:15;;;;;;;12.13;7.13;;;8.80;81.00;;;;;;4954435;28;20026;-86
2023/04/13 06:27:42;;;;;;;9.00;6.90;;;8.80;79.50;;;;;;4954689;28;20588;-85
2023/04/13 06:30:09;;;;;;;10.75;7.18;;;8.80;78.00;;;;;;4955189;28;20473;-85
2023/04/13 06:32:35;;;;;;;10.73;6.55;;;8.80;76.60;;;;;;4956650;28;20354;-85
2023/04/13 06:35:02;;;;;;;10.07;6.00;;;8.90;75.60;;;;;;4956307;28;20027;-86
2023/04/13 06:37:29;;;;;;;9.90;6.20;;;8.90;76.00;;;;;;4973973;28;20023;-85
2023/04/13 06:39:56;;;;;;;8.60;6.38;;;8.90;76.10;;;;;;4973472;28;20034;-86
2023/04/13 06:42:22;;;;;;;9.10;5.68;;;8.90;75.70;;;;;;4974177;28;20493;-86
2023/04/13 06:44:48;;;;;;;8.35;6.13;;;9.00;75.30;;;;;;4956564;28;20434;-86
2023/04/13 06:47:14;;;;;;;9.20;6.10;;;9.00;74.80;;;;;;4956438;28;20125;-86
2023/04/13 06:49:41;;;;;;;9.95;6.28;;;9.00;74.40;;;;;;4956095;28;20105;-86
2023/04/13 06:52:07;;;;;;;8.70;5.82;;;9.20;75.30;;;;;;4956437;28;20026;-86
2023/04/13 06:54:34;;;;;;;10.65;5.57;;;9.30;74.30;;;;;;4956266;28;21854;-86
2023/04/13 06:57:00;;;;;;;14.15;6.45;;;9.40;74.80;;;;;;4956410;28;20495;-86
2023/04/13 06:59:26;;;;;;;9.52;5.40;;;9.50;74.50;;;;;;4973578;28;20023;-85
2023/04/13 07:01:52;;;;;;;7.25;5.20;;;9.50;72.40;;;;;;4956681;28;20027;-87
2023/04/13 07:04:18;;;;;;;8.48;5.63;;;9.60;72.20;;;;;;4973334;28;20018;-85
2023/04/13 07:06:44;;;;;;;9.05;6.38;;;9.70;71.20;;;;;;4973604;28;20031;-86
2023/04/13 07:09:10;;;;;;;9.80;6.00;;;9.80;71.20;;;;;;4956604;28;20061;-86
2023/04/13 07:11:36;;;;;;;8.70;5.97;;;9.90;70.40;;;;;;4973612;28;20541;-85
2023/04/13 07:14:02;;;;;;;8.82;5.78;;;9.90;70.50;;;;;;4956245;28;20119;-86
2023/04/13 07:16:28;;;;;;;11.32;7.55;;;10.00;71.00;;;;;;4956179;28;20053;-86
2023/04/13 07:18:54;;;;;;;8.45;6.97;;;10.10;70.50;;;;;;4976420;28;20023;-86
2023/04/13 07:21:20;;;;;;;8.32;5.43;;;10.20;70.30;;;;;;4959506;28;20023;-86
2023/04/13 07:23:46;;;;;;;7.88;5.50;;;10.30;69.80;;;;;;4959346;28;20030;-86
2023/04/13 07:26:14;;;;;;;9.07;5.40;;;10.40;69.70;;;;;;4959979;28;20019;-86
2023/04/13 07:28:40;;;;;;;10.77;5.22;;;10.50;69.00;;;;;;4976918;28;20034;-86
2023/04/13 07:31:07;;;;;;;12.73;6.00;;;10.60;68.00;;;;;;4976874;28;20037;-86
2023/04/13 07:33:33;;;;;;;9.65;5.82;;;10.70;67.50;;;;;;4977176;28;20027;-85
2023/04/13 07:35:58;;;;;;;8.90;6.57;;;10.80;67.60;;;;;;4959382;28;20369;-86
2023/04/13 07:38:24;;;;;;;10.73;6.78;;;11.00;66.80;;;;;;4959252;28;20038;-85
2023/04/13 07:40:50;;;;;;;8.10;5.43;;;11.20;66.20;;;;;;4959549;28;20026;-87
2023/04/13 07:43:16;;;;;;;10.13;6.05;;;11.40;65.40;;;;;;4976703;28;20161;-86
2023/04/13 07:45:42;;;;;;;8.85;5.03;;;11.50;65.40;;;;;;4976499;28;20489;-86
2023/04/13 07:48:08;;;;;;;10.15;6.15;;;11.60;61.50;;;;;;4976939;28;20113;-86
2023/04/13 07:50:42;;;;;;;10.95;5.80;;;11.80;61.90;;;;;;4959476;28;20153;-87
2023/04/13 07:53:08;;;;;;;7.80;4.90;;;11.90;61.70;;;;;;4976062;28;20101;-86
2023/04/13 07:55:35;;;;;;;5.35;4.68;;;12.10;61.90;;;;;;4959030;28;20054;-86
2023/04/13 07:58:01;;;;;;;5.80;3.08;;;12.30;61.00;;;;;;4976652;28;20027;-86
2023/04/13 08:00:27;;;;;;;9.02;4.82;;;12.60;58.00;;;;;;4959000;28;20549;-86
2023/04/13 08:02:56;;;;;;;3.50;3.20;;;12.90;57.70;;;;;;4976379;28;20130;-87
2023/04/13 08:05:22;;;;;;;5.38;2.97;;;13.10;54.80;;;;;;4958271;28;20099;-85
2023/04/13 08:07:48;;;;;;;4.30;2.78;;;13.10;53.10;;;;;;4958758;28;20462;-87
2023/04/13 08:10:14;;;;;;;7.10;3.38;;;13.40;54.40;;;;;;4976253;28;20050;-87
2023/04/13 08:12:40;;;;;;;3.42;2.50;;;13.50;53.90;;;;;;4976475;28;20431;-87
2023/04/13 08:15:06;;;;;;;3.33;2.30;;;13.50;52.60;;;;;;4975917;28;20057;-87
2023/04/13 08:17:32;;;;;;;5.10;3.00;;;13.70;53.30;;;;;;4976347;28;20023;-86
2023/04/13 08:19:58;;;;;;;3.92;2.72;;;13.90;52.80;;;;;;4958915;28;20469;-86
2023/04/13 08:22:24;;;;;;;7.88;3.30;;;14.10;51.60;;;;;;4976277;28;20062;-86
2023/04/13 08:24:50;;;;;;;5.97;5.32;;;14.10;49.10;;;;;;4975881;28;20031;-86
2023/04/13 08:27:15;;;;;;;8.82;4.18;;;14.10;48.80;;;;;;4958257;28;20035;-86
2023/04/13 08:29:41;;;;;;;7.82;3.67;;;14.20;51.30;;;;;;4974927;28;20354;-86
2023/04/13 08:32:07;;;;;;;7.95;4.90;;;14.40;51.00;;;;;;4958312;28;20050;-86
2023/04/13 08:34:33;;;;;;;4.80;3.15;;;14.40;49.50;;;;;;4958316;28;20393;-86
2023/04/13 08:36:59;;;;;;;5.22;3.28;;;14.60;49.50;;;;;;4975537;28;20050;-86
2023/04/13 08:39:26;;;;;;;4.97;4.47;;;14.60;48.30;;;;;;4958459;28;20080;-86
2023/04/13 08:41:52;;;;;;;3.90;3.47;;;14.70;48.40;;;;;;4958638;28;20030;-86
2023/04/13 08:44:17;;;;;;;3.72;2.70;;;14.60;49.30;;;;;;4958342;28;20041;-86
2023/04/13 08:46:45;;;;;;;6.03;2.92;;;14.70;50.60;;;;;;4958371;28;20057;-86
2023/04/13 08:49:11;;;;;;;3.85;2.70;;;14.70;49.00;;;;;;4957853;28;20069;-86
2023/04/13 08:51:38;;;;;;;6.03;3.33;;;14.70;51.10;;;;;;4975187;28;20027;-85
2023/04/13 08:54:05;;;;;;;3.95;2.55;;;14.70;50.70;;;;;;4957642;28;20042;-86
2023/04/13 08:56:32;;;;;;;4.95;2.85;;;14.80;49.60;;;;;;4957863;28;20023;-86
2023/04/13 08:59:03;;;;;;;7.75;5.32;;;14.90;49.50;;;;;;4956855;28;20433;-86
2023/04/13 09:01:58;;;;;;;5.15;4.15;;;14.60;48.70;;;;;;4956800;28;20393;-86
2023/04/13 09:04:27;;;;;;;6.20;3.58;;;14.40;48.70;;;;;;4955593;28;20027;-86
2023/04/13 09:06:53;;;;;;;4.65;3.10;;;14.50;49.50;;;;;;4973267;28;20035;-87
2023/04/13 09:09:20;;;;;;;6.22;3.70;;;14.50;48.90;;;;;;4955614;28;20026;-86
2023/04/13 09:11:46;;;;;;;5.65;2.65;;;14.50;48.60;;;;;;4974243;28;20019;-86
2023/04/13 09:14:11;;;;;;;4.55;2.80;;;14.60;49.40;;;;;;4974576;28;20102;-87
2023/04/13 09:16:42;;;;;;;4.03;2.78;;;14.70;49.00;;;;;;4991095;28;20105;-87
2023/04/13 09:19:08;;;;;;;6.88;3.90;;;14.80;50.00;;;;;;4976951;28;20038;-87
2023/04/13 09:21:39;;;;;;;4.80;2.50;;;14.90;49.90;;;;;;4994036;28;20076;-86
2023/04/13 09:24:06;;;;;;;9.23;5.72;;;15.10;50.20;;;;;;4993955;28;20451;-87
2023/04/13 09:26:46;;;;;;;3.60;2.78;;;15.20;51.40;;;;;;4975444;28;20034;-86
2023/04/13 09:29:20;;;;;;;4.82;3.00;;;15.30;49.90;;;;;;4994246;28;20037;-86
2023/04/13 09:31:46;;;;;;;5.28;3.08;;;15.40;48.90;;;;;;4976125;28;20075;-88
2023/04/13 09:34:13;;;;;;;4.28;2.90;;;15.60;49.90;;;;;;4975777;28;20037;-87
2023/04/13 09:36:40;;;;;;;9.52;3.22;;;15.70;48.70;;;;;;4976271;28;20476;-86
2023/04/13 09:39:07;;;;;;;4.38;2.80;;;15.60;48.80;;;;;;4993925;28;20023;-86
2023/04/13 09:41:37;;;;;;;4.93;2.97;;;15.80;49.30;;;;;;4975871;28;20384;-86
2023/04/13 09:44:19;;;;;;;5.60;3.13;;;15.80;49.50;;;;;;4993664;28;20563;-86
2023/04/13 09:46:57;;;;;;;4.80;2.80;;;15.70;49.40;;;;;;4976184;28;20019;-86
2023/04/13 09:49:24;;;;;;;5.78;3.03;;;15.70;48.40;;;;;;4993924;28;20376;-87
2023/04/13 09:51:53;;;;;;;10.20;3.97;;;15.90;50.50;;;;;;4976535;28;20030;-87
2023/04/13 09:54:22;;;;;;;3.63;2.38;;;16.10;50.20;;;;;;4991995;28;20128;-87
2023/04/13 09:56:55;;;;;;;6.18;3.80;;;16.20;49.40;;;;;;4993594;28;20030;-88
2023/04/13 09:59:24;;;;;;;8.25;4.07;;;16.20;49.40;;;;;;4993418;28;20026;-87
2023/04/13 10:01:50;;;;;;;4.47;2.63;;;16.20;48.60;;;;;;4976292;28;20041;-87
2023/04/13 10:04:16;;;;;;;8.27;3.85;;;16.10;46.40;;;;;;4975736;28;20376;-86
2023/04/13 10:06:43;;;;;;;4.10;2.95;;;16.00;48.50;;;;;;4976133;28;20025;-87
2023/04/13 10:09:09;;;;;;;3.10;2.55;;;16.00;49.30;;;;;;4968061;28;20023;-86
2023/04/13 10:11:43;;;;;;;7.10;2.75;;;15.90;46.80;;;;;;4973284;28;20029;-86
2023/04/13 10:14:21;;;;;;;3.50;2.90;;;15.80;47.20;;;;;;4974112;28;20034;-87
2023/04/13 10:17:21;;;;;;;5.65;2.78;;;15.70;48.00;;;;;;4974526;28;20049;-86
2023/04/13 10:19:52;;;;;;;5.68;2.83;;;15.70;49.20;;;;;;4977123;28;20047;-87
2023/04/13 10:22:21;;;;;;;4.60;2.63;;;15.70;50.10;;;;;;4973652;28;20022;-86
2023/04/13 10:24:48;;;;;;;4.90;3.17;;;15.80;49.50;;;;;;4973941;28;20019;-86
2023/04/13 10:27:19;;;;;;;5.88;3.13;;;15.80;48.60;;;;;;4956830;28;20396;-86
2023/04/13 10:29:47;;;;;;;5.57;2.90;;;15.80;49.50;;;;;;4956998;28;20481;-87
2023/04/13 10:32:24;;;;;;;5.60;2.90;;;15.90;50.00;;;;;;4956232;28;20031;-86
2023/04/13 10:34:50;;;;;;;5.47;3.05;;;15.80;47.60;;;;;;4955756;28;20041;-87
2023/04/13 10:37:18;;;;;;;4.75;2.50;;;16.00;47.60;;;;;;4956621;28;20029;-87
2023/04/13 10:39:45;;;;;;;5.43;2.22;;;16.20;48.40;;;;;;4973860;28;20034;-87
2023/04/13 10:42:12;;;;;;;6.18;2.65;;;16.40;49.50;;;;;;4972511;28;20023;-87
2023/04/13 10:44:45;;;;;;;6.10;2.50;;;16.30;47.90;;;;;;4959483;28;20400;-86
2023/04/13 10:47:16;;;;;;;3.90;2.22;;;16.30;48.50;;;;;;4981394;28;20030;-87
2023/04/13 10:49:43;;;;;;;5.00;2.65;;;16.20;46.60;;;;;;4987221;28;20366;-86
2023/04/13 10:52:10;;;;;;;6.10;2.60;;;16.20;48.10;;;;;;4986123;28;20031;-87
2023/04/13 10:54:37;;;;;;;5.47;2.65;;;16.30;48.10;;;;;;4992432;28;20128;-86
2023/04/13 10:57:05;;;;;;;4.47;2.30;;;16.40;47.10;;;;;;4977865;28;20034;-87
2023/04/13 10:59:53;;;;;;;3.03;2.55;;;16.50;47.20;;;;;;4995103;28;20030;-88
2023/04/13 11:02:19;;;;;;;4.70;3.17;;;16.60;47.00;;;;;;4990095;28;20042;-86
2023/04/13 11:04:47;;;;;;;4.47;2.97;;;16.70;47.90;;;;;;4982295;28;20396;-86
2023/04/13 11:07:15;;;;;;;5.95;4.00;;;16.70;47.50;;;;;;4967108;28;20117;-86
2023/04/13 11:09:51;;;;;;;3.35;2.63;;;16.40;44.80;;;;;;4980878;28;20117;-86
2023/04/13 11:12:18;;;;;;;8.15;2.75;;;16.40;45.40;;;;;;4975754;28;20023;-87
2023/04/13 11:14:48;;;;;;;6.82;2.80;;;16.10;47.30;;;;;;4957540;28;20053;-86
2023/04/13 11:17:16;;;;;;;3.85;2.47;;;16.20;49.70;;;;;;4975972;28;20574;-87
2023/04/13 11:19:52;;;;;;;6.72;3.40;;;16.20;48.60;;;;;;4974836;28;20042;-86
2023/04/13 11:22:24;;;;;;;5.47;2.97;;;16.40;49.60;;;;;;4985659;28;20081;-86
2023/04/13 11:24:50;;;;;;;4.72;2.75;;;16.50;50.30;;;;;;4994342;28;20093;-87
2023/04/13 11:27:20;;;;;;;4.85;2.33;;;16.40;47.80;;;;;;4985334;28;20035;-86
2023/04/13 11:30:03;;;;;;;3.08;2.25;;;16.30;47.70;;;;;;4964911;28;20448;-86
2023/04/13 11:32:31;;;;;;;2.25;1.98;;;16.10;48.80;;;;;;4982839;28;20045;-86
2023/04/13 11:35:24;;;;;;;3.05;2.20;;;16.30;50.70;;;;;;4982402;28;20031;-87
2023/04/13 11:37:52;;;;;;;3.53;2.13;;;16.40;48.90;;;;;;4968863;28;20046;-86
2023/04/13 11:40:26;;;;;;;7.40;2.40;;;16.50;48.70;;;;;;4994224;28;20394;-86
2023/04/13 11:42:58;;;;;;;3.65;2.30;;;16.70;48.40;;;;;;4994095;28;20241;-86
2023/04/13 11:45:27;;;;;;;5.68;3.85;;;16.70;48.90;;;;;;4973508;28;20084;-86
2023/04/13 11:47:54;;;;;;;6.00;3.10;;;16.80;49.60;;;;;;4985911;28;20153;-86
2023/04/13 11:50:21;;;;;;;5.85;3.33;;;16.90;47.70;;;;;;4982855;28;20039;-86
2023/04/13 11:52:50;;;;;;;7.13;3.25;;;17.10;48.60;;;;;;4990894;28;20397;-87
2023/04/13 11:55:16;;;;;;;4.63;3.25;;;17.20;47.90;;;;;;4976513;28;20034;-87
2023/04/13 11:57:43;;;;;;;6.28;4.43;;;17.30;48.40;;;;;;4976719;28;20027;-87
2023/04/13 12:00:18;;;;;;;4.88;3.10;;;17.20;46.90;;;;;;4993556;28;20030;-87
2023/04/13 12:02:45;;;;;;;4.47;2.97;;;17.30;47.50;;;;;;4974908;28;20026;-86
2023/04/13 12:05:24;;;;;;;3.25;2.75;;;17.20;47.40;;;;;;4963249;28;20031;-87
2023/04/13 12:07:53;;;;;;;4.10;3.65;;;17.20;48.70;;;;;;4982430;28;20038;-87
2023/04/13 12:10:24;;;;;;;5.53;2.85;;;17.10;48.20;;;;;;4973736;28;20035;-87
2023/04/13 12:13:07;;;;;;;6.32;3.03;;;17.00;47.90;;;;;;4965400;28;20516;-87
2023/04/13 12:15:34;;;;;;;6.38;2.83;;;17.00;48.10;;;;;;4965907;28;20109;-86
2023/04/13 12:18:01;;;;;;;6.65;3.38;;;17.10;48.60;;;;;;4973520;28;20093;-87
2023/04/13 12:20:35;;;;;;;4.50;2.75;;;17.10;46.90;;;;;;4980828;28;20031;-87
2023/04/13 12:23:01;;;;;;;4.13;3.20;;;17.30;48.30;;;;;;4984111;28;20117;-86
2023/04/13 12:25:28;;;;;;;6.45;3.35;;;17.40;48.80;;;;;;4984026;28;20436;-86
2023/04/13 12:27:54;;;;;;;4.53;3.65;;;17.50;48.60;;;;;;4965302;28;20117;-86
2023/04/13 12:30:21;;;;;;;6.35;2.80;;;17.60;46.50;;;;;;4976506;28;20169;-87
2023/04/13 12:32:51;;;;;;;5.75;3.22;;;17.70;44.90;;;;;;4994403;28;20033;-86
2023/04/13 12:35:20;;;;;;;3.75;3.33;;;17.40;44.20;;;;;;4993660;28;20022;-86
2023/04/13 12:37:47;;;;;;;6.38;3.03;;;17.20;46.00;;;;;;4994800;28;20080;-87
2023/04/13 12:40:14;;;;;;;6.75;3.30;;;17.20;47.30;;;;;;4977558;28;20057;-87
2023/04/13 12:42:46;;;;;;;6.10;2.70;;;17.20;47.60;;;;;;4994875;28;20197;-87
2023/04/13 12:45:13;;;;;;;3.53;2.25;;;17.30;48.80;;;;;;4977258;28;20053;-87
2023/04/13 12:47:39;;;;;;;5.15;4.60;;;17.20;47.70;;;;;;4986434;28;20055;-87